createdAt,value
2023-01-04T00:01:29.256Z,22.92
2023-01-04T00:03:56.631Z,26.80
2023-01-04T00:06:24.256Z,23.45
2023-01-04T00:08:51.420Z,20.75
2023-01-04T00:11:21.873Z,21.08
2023-01-04T00:13:52.885Z,21.92
2023-01-04T00:16:23.364Z,24.45
2023-01-04T00:18:52.930Z,18.83
2023-01-04T00:21:27.307Z,23.27
2023-01-04T00:24:00.424Z,18.95
2023-01-04T00:26:31.664Z,23.70
2023-01-04T00:29:05.810Z,22.47
2023-01-04T00:31:35.548Z,26.13
2023-01-04T00:34:05.664Z,20.17
2023-01-04T00:36:33.944Z,21.17
2023-01-04T00:39:09.042Z,23.85
2023-01-04T00:41:58.853Z,21.40
2023-01-04T00:44:27.467Z,20.50
2023-01-04T00:46:54.792Z,22.30
2023-01-04T00:49:21.999Z,22.92
2023-01-04T00:51:49.331Z,22.00
2023-01-04T00:54:17.380Z,22.03
2023-01-04T00:56:45.367Z,21.83
2023-01-04T00:59:18.447Z,21.98
2023-01-04T01:01:46.714Z,21.53
2023-01-04T01:04:17.278Z,20.07
2023-01-04T01:06:45.444Z,20.50
2023-01-04T01:09:12.863Z,19.30
2023-01-04T01:11:41.143Z,24.10
2023-01-04T01:14:13.675Z,19.20
2023-01-04T01:16:58.021Z,23.77
2023-01-04T01:19:28.396Z,20.70
2023-01-04T01:21:57.236Z,21.10
2023-01-04T01:24:24.964Z,22.50
2023-01-04T01:26:52.157Z,20.43
2023-01-04T01:29:19.409Z,25.23
2023-01-04T01:31:46.705Z,22.90
2023-01-04T01:34:13.853Z,26.33
2023-01-04T01:36:41.035Z,25.80
2023-01-04T01:39:08.388Z,22.87
2023-01-04T01:41:36.279Z,29.87
2023-01-04T01:44:14.128Z,26.50
2023-01-04T01:46:45.769Z,26.60
2023-01-04T01:49:33.729Z,26.97
2023-01-04T01:52:06.763Z,24.13
2023-01-04T01:54:42.559Z,23.40
2023-01-04T01:57:19.274Z,28.90
2023-01-04T01:59:50.378Z,26.00
2023-01-04T02:02:17.746Z,27.27
2023-01-04T02:04:49.561Z,21.67
2023-01-04T02:07:22.081Z,22.63
2023-01-04T02:09:50.711Z,23.10
2023-01-04T02:12:18.406Z,28.27
2023-01-04T02:14:48.889Z,25.63
2023-01-04T02:17:28.417Z,26.50
2023-01-04T02:20:25.757Z,25.03
2023-01-04T02:23:23.349Z,23.63
2023-01-04T02:26:35.707Z,20.37
2023-01-04T02:29:36.171Z,23.50
2023-01-04T02:32:45.640Z,21.60
2023-01-04T02:35:39.857Z,24.03
2023-01-04T02:38:19.137Z,21.50
2023-01-04T02:41:28.061Z,25.60
2023-01-04T02:44:31.494Z,22.03
2023-01-04T02:47:11.281Z,26.13
2023-01-04T02:50:02.412Z,23.60
2023-01-04T02:52:33.000Z,21.37
2023-01-04T02:55:07.209Z,25.20
2023-01-04T02:58:00.353Z,21.20
2023-01-04T03:01:30.872Z,25.43
2023-01-04T03:04:49.095Z,25.77
2023-01-04T03:07:41.345Z,19.60
2023-01-04T03:10:39.434Z,25.17
2023-01-04T03:13:21.427Z,23.60
2023-01-04T03:15:58.805Z,24.50
2023-01-04T03:18:34.612Z,28.63
2023-01-04T03:21:04.509Z,25.53
2023-01-04T03:24:05.043Z,21.37
2023-01-04T03:26:57.928Z,23.00
2023-01-04T03:30:28.246Z,27.00
2023-01-04T03:33:28.057Z,25.47
2023-01-04T03:36:20.027Z,22.23
2023-01-04T03:39:46.018Z,30.47
2023-01-04T03:43:04.264Z,24.57
2023-01-04T03:46:01.848Z,23.67
2023-01-04T03:48:42.094Z,32.50
2023-01-04T03:51:25.787Z,30.80
2023-01-04T03:54:17.974Z,26.20
2023-01-04T03:56:46.419Z,28.73
2023-01-04T03:59:14.070Z,28.03
2023-01-04T04:01:44.114Z,24.13
2023-01-04T04:04:30.409Z,24.60
2023-01-04T04:09:43.287Z,24.47
2023-01-04T04:12:10.497Z,25.80
2023-01-04T04:14:37.652Z,22.47
2023-01-04T04:17:05.013Z,22.40
2023-01-04T04:19:32.088Z,23.60
2023-01-04T04:21:59.349Z,25.23
2023-01-04T04:24:27.202Z,30.67
2023-01-04T04:26:55.890Z,22.70
2023-01-04T04:29:24.548Z,23.73
2023-01-04T04:31:52.203Z,27.50
2023-01-04T04:34:19.580Z,24.37
2023-01-04T04:36:47.114Z,21.83
2023-01-04T04:39:14.451Z,26.03
2023-01-04T04:41:42.086Z,24.63
2023-01-04T04:44:20.500Z,24.73
2023-01-04T04:46:48.907Z,19.83
2023-01-04T04:49:17.687Z,21.00
2023-01-04T04:51:46.598Z,24.10
2023-01-04T04:54:19.969Z,23.77
2023-01-04T04:56:49.077Z,28.20
2023-01-04T04:59:16.928Z,27.27
2023-01-04T05:01:44.164Z,25.00
2023-01-04T05:04:16.568Z,25.30
2023-01-04T05:06:44.890Z,26.40
2023-01-04T05:09:14.278Z,24.33
2023-01-04T05:12:00.081Z,28.87
2023-01-04T05:14:28.321Z,25.58
2023-01-04T05:16:55.548Z,26.27
2023-01-04T05:19:22.813Z,22.63
2023-01-04T05:21:52.918Z,22.43
2023-01-04T05:24:20.038Z,19.93
2023-01-04T05:26:47.205Z,23.77
2023-01-04T05:29:34.434Z,22.47
2023-01-04T05:32:01.723Z,23.30
2023-01-04T05:34:28.994Z,25.77
2023-01-04T05:36:56.084Z,28.03
2023-01-04T05:39:23.290Z,26.43
2023-01-04T05:42:09.179Z,28.40
2023-01-04T05:44:36.365Z,27.45
2023-01-04T05:47:03.579Z,31.80
2023-01-04T05:49:30.659Z,26.70
2023-01-04T05:51:57.896Z,30.67
2023-01-04T05:54:25.008Z,27.83
2023-01-04T05:56:52.141Z,24.97
2023-01-04T05:59:21.940Z,28.00
2023-01-04T06:01:49.645Z,29.80
2023-01-04T06:04:16.810Z,33.13
2023-01-04T06:06:43.951Z,30.50
2023-01-04T06:09:11.080Z,30.50
2023-01-04T06:11:38.265Z,30.20
2023-01-04T06:14:05.906Z,31.30
2023-01-04T06:16:33.121Z,26.60
2023-01-04T06:19:01.081Z,28.27
2023-01-04T06:21:28.281Z,49.07
2023-01-04T06:23:55.393Z,27.90
2023-01-04T06:26:22.531Z,24.90
2023-01-04T06:28:49.651Z,40.80
2023-01-04T06:31:16.958Z,30.13
2023-01-04T06:33:44.249Z,24.07
2023-01-04T06:36:19.579Z,29.83
2023-01-04T06:38:48.736Z,27.17
2023-01-04T06:41:16.282Z,26.00
2023-01-04T06:43:43.537Z,30.40
2023-01-04T06:46:14.217Z,24.50
2023-01-04T06:48:41.492Z,27.33
2023-01-04T06:51:08.936Z,37.40
2023-01-04T06:53:36.037Z,25.17
2023-01-04T06:56:03.231Z,25.47
2023-01-04T06:58:30.407Z,23.37
2023-01-04T07:00:57.702Z,26.97
2023-01-04T07:03:24.880Z,26.37
2023-01-04T07:05:52.306Z,25.83
2023-01-04T07:08:20.164Z,30.57
2023-01-04T07:10:47.500Z,28.60
2023-01-04T07:13:14.791Z,29.40
2023-01-04T07:15:42.332Z,37.30
2023-01-04T07:18:10.989Z,29.73
2023-01-04T07:20:39.154Z,31.83
2023-01-04T07:23:07.622Z,27.17
2023-01-04T07:25:35.121Z,35.57
2023-01-04T07:28:03.418Z,45.57
2023-01-04T07:30:30.545Z,22.87
2023-01-04T07:32:58.319Z,22.37
2023-01-04T07:35:25.973Z,36.97
2023-01-04T07:37:58.360Z,22.73
2023-01-04T07:40:27.855Z,21.97
2023-01-04T07:42:59.627Z,19.70
2023-01-04T07:45:27.736Z,27.17
2023-01-04T07:47:54.936Z,30.57
2023-01-04T07:50:22.142Z,31.17
2023-01-04T07:52:49.300Z,19.20
2023-01-04T07:55:16.567Z,54.60
2023-01-04T07:57:46.698Z,25.10
2023-01-04T08:00:14.449Z,30.63
2023-01-04T08:02:45.328Z,29.90
2023-01-04T08:05:12.732Z,27.50
2023-01-04T08:07:39.960Z,24.97
2023-01-04T08:10:08.356Z,32.57
2023-01-04T08:12:35.905Z,26.10
2023-01-04T08:15:03.134Z,25.03
2023-01-04T08:17:30.499Z,22.27
2023-01-04T08:19:57.665Z,26.03
2023-01-04T08:22:24.927Z,32.23
2023-01-04T08:24:52.175Z,19.80
2023-01-04T08:27:19.338Z,25.33
2023-01-04T08:29:46.498Z,24.23
2023-01-04T08:32:13.604Z,24.90
2023-01-04T08:34:40.972Z,24.13
2023-01-04T08:37:08.162Z,26.80
2023-01-04T08:39:36.240Z,25.37
2023-01-04T08:42:18.775Z,27.03
2023-01-04T08:44:47.804Z,24.57
2023-01-04T08:47:15.019Z,27.43
2023-01-04T08:49:42.308Z,29.17
2023-01-04T08:52:10.112Z,39.73
2023-01-04T08:54:37.274Z,39.30
2023-01-04T08:57:04.484Z,32.20
2023-01-04T08:59:31.630Z,29.33
2023-01-04T09:02:05.413Z,29.53
2023-01-04T09:04:33.458Z,29.10
2023-01-04T09:07:00.743Z,29.00
2023-01-04T09:09:30.112Z,31.47
2023-01-04T09:11:57.408Z,28.93
2023-01-04T09:14:24.597Z,26.43
2023-01-04T09:16:51.839Z,31.33
2023-01-04T09:19:22.241Z,27.87
2023-01-04T09:21:50.230Z,35.77
2023-01-04T09:24:17.479Z,26.77
2023-01-04T09:26:44.564Z,26.37
2023-01-04T09:29:12.011Z,29.43
2023-01-04T09:31:39.255Z,28.57
2023-01-04T09:34:16.710Z,24.67
2023-01-04T09:36:49.358Z,26.67
2023-01-04T09:39:22.327Z,21.30
2023-01-04T09:41:59.907Z,19.70
2023-01-04T09:48:04.979Z,19.33
2023-01-04T09:50:45.353Z,18.57
2023-01-04T09:53:24.397Z,19.70
2023-01-04T09:56:32.609Z,19.20
2023-01-04T09:59:07.410Z,17.50
2023-01-04T10:02:00.065Z,28.57
2023-01-04T10:04:46.220Z,29.33
2023-01-04T10:07:32.055Z,25.38
2023-01-04T10:10:02.249Z,25.57
2023-01-04T10:12:44.468Z,21.37
2023-01-04T10:15:53.107Z,21.30
2023-01-04T10:21:55.363Z,23.20
2023-01-04T10:24:56.278Z,21.42
2023-01-04T10:28:30.493Z,26.90
2023-01-04T10:31:39.440Z,19.47
2023-01-04T10:34:39.154Z,18.63
2023-01-04T10:37:24.095Z,19.27
2023-01-04T10:39:55.749Z,20.80
2023-01-04T10:42:35.081Z,19.53
2023-01-04T10:45:20.617Z,20.40
2023-01-04T10:48:13.165Z,20.98
2023-01-04T10:51:09.403Z,19.10
2023-01-04T10:53:47.709Z,22.95
2023-01-04T10:56:41.888Z,19.45
2023-01-04T10:59:29.342Z,19.02
2023-01-04T11:02:04.992Z,19.55
2023-01-04T11:04:49.582Z,19.10
2023-01-04T11:07:28.485Z,22.10
2023-01-04T11:12:34.625Z,17.77
2023-01-04T11:15:05.017Z,21.48
2023-01-04T11:17:36.009Z,17.58
2023-01-04T11:20:03.993Z,20.00
2023-01-04T11:22:57.553Z,20.92
2023-01-04T11:25:35.487Z,20.52
2023-01-04T11:28:21.486Z,17.38
2023-01-04T11:31:09.783Z,17.23
2023-01-04T11:34:02.195Z,20.20
2023-01-04T11:36:44.225Z,19.90
2023-01-04T11:39:27.436Z,19.85
2023-01-04T11:42:03.360Z,26.95
2023-01-04T11:44:35.558Z,22.55
2023-01-04T11:47:26.741Z,22.58
2023-01-04T11:49:56.213Z,25.48
2023-01-04T11:52:35.352Z,23.73
2023-01-04T11:55:26.329Z,21.73
2023-01-04T11:58:18.591Z,29.00
2023-01-04T12:00:56.654Z,23.30
2023-01-04T12:03:40.497Z,22.35
2023-01-04T12:06:21.627Z,21.50
2023-01-04T12:08:51.731Z,24.83
2023-01-04T12:11:39.986Z,23.88
2023-01-04T12:14:25.183Z,22.55
2023-01-04T12:17:11.202Z,21.58
2023-01-04T12:19:42.133Z,20.85
2023-01-04T12:22:37.083Z,21.92
2023-01-04T12:25:21.959Z,21.35
2023-01-04T12:27:51.556Z,23.08
2023-01-04T12:30:46.426Z,25.27
2023-01-04T12:33:32.612Z,22.95
2023-01-04T12:36:15.705Z,18.30
2023-01-04T12:38:55.077Z,19.98
2023-01-04T12:42:00.542Z,20.08
2023-01-04T12:44:37.019Z,18.90
2023-01-04T12:47:38.079Z,19.52
2023-01-04T12:50:31.954Z,19.63
2023-01-04T12:53:28.838Z,18.05
2023-01-04T12:55:54.907Z,21.60
2023-01-04T12:59:06.522Z,22.48
2023-01-04T13:01:26.166Z,18.15
2023-01-04T13:04:42.646Z,19.67
2023-01-04T13:07:33.547Z,23.77
2023-01-04T13:10:29.775Z,22.08
2023-01-04T13:13:37.469Z,28.23
2023-01-04T13:16:45.392Z,27.77
2023-01-04T13:19:25.342Z,23.85
2023-01-04T13:21:54.228Z,30.88
2023-01-04T13:24:33.190Z,26.27
2023-01-04T13:27:10.373Z,22.15
2023-01-04T13:29:37.662Z,21.65
2023-01-04T13:32:29.310Z,22.70
2023-01-04T13:35:14.329Z,21.52
2023-01-04T13:37:47.516Z,28.02
2023-01-04T13:40:35.948Z,26.27
2023-01-04T13:43:24.675Z,28.25
2023-01-04T13:46:12.941Z,23.85
2023-01-04T13:48:44.325Z,21.67
2023-01-04T13:51:29.078Z,20.95
2023-01-04T13:54:02.051Z,18.50
2023-01-04T13:56:33.596Z,19.67
2023-01-04T13:59:01.456Z,17.30
2023-01-04T14:01:38.506Z,24.77
2023-01-04T14:04:14.658Z,32.25
2023-01-04T14:09:35.428Z,35.22
2023-01-04T14:12:18.512Z,25.10
2023-01-04T14:15:06.527Z,25.70
2023-01-04T14:17:36.627Z,25.80
2023-01-04T14:20:26.291Z,24.38
2023-01-04T14:22:56.258Z,26.65
2023-01-04T14:25:38.550Z,24.77
2023-01-04T14:28:25.069Z,25.83
2023-01-04T14:30:59.996Z,21.45
2023-01-04T14:33:41.732Z,23.42
2023-01-04T14:36:30.110Z,21.55
2023-01-04T14:39:21.250Z,23.05
2023-01-04T14:41:55.126Z,37.42
2023-01-04T14:44:31.064Z,43.65
2023-01-04T14:49:28.494Z,30.77
2023-01-04T14:52:02.255Z,23.67
2023-01-04T14:54:31.879Z,20.88
2023-01-04T14:56:59.683Z,25.80
2023-01-04T14:59:27.267Z,23.15
2023-01-04T15:01:56.557Z,24.85
2023-01-04T15:04:25.176Z,23.90
2023-01-04T15:07:01.147Z,25.67
2023-01-04T15:09:29.986Z,29.30
2023-01-04T15:11:57.919Z,28.27
2023-01-04T15:14:25.179Z,26.88
2023-01-04T15:16:52.505Z,26.05
2023-01-04T15:19:19.674Z,27.13
2023-01-04T15:21:47.107Z,25.77
2023-01-04T15:24:14.300Z,25.58
2023-01-04T15:26:41.710Z,28.25
2023-01-04T15:29:09.855Z,42.75
2023-01-04T15:31:40.359Z,30.20
2023-01-04T15:34:10.376Z,34.55
2023-01-04T15:36:41.018Z,33.83
2023-01-04T15:39:11.194Z,34.90
2023-01-04T15:41:56.718Z,29.92
2023-01-04T15:44:24.901Z,42.22
2023-01-04T15:46:53.918Z,38.63
2023-01-04T15:49:21.796Z,36.65
2023-01-04T15:51:48.911Z,31.33
2023-01-04T15:54:17.230Z,27.67
2023-01-04T15:56:47.871Z,31.60
2023-01-04T15:59:14.985Z,33.10
2023-01-04T16:01:43.285Z,31.52
2023-01-04T16:04:13.559Z,33.50
2023-01-04T16:06:41.002Z,38.75
2023-01-04T16:09:08.504Z,34.35
2023-01-04T16:11:36.093Z,33.28
2023-01-04T16:14:03.795Z,40.53
2023-01-04T16:16:32.701Z,33.45
2023-01-04T16:19:00.125Z,35.60
2023-01-04T16:21:28.940Z,34.10
2023-01-04T16:24:05.502Z,33.63
2023-01-04T16:26:40.429Z,29.88
2023-01-04T16:29:07.672Z,30.90
2023-01-04T16:31:36.686Z,32.78
2023-01-04T16:34:05.353Z,33.30
2023-01-04T16:36:32.607Z,47.13
2023-01-04T16:39:01.513Z,32.83
2023-01-04T16:41:29.280Z,31.95
2023-01-04T16:44:00.465Z,35.45
2023-01-04T16:46:33.755Z,35.33
2023-01-04T16:49:09.737Z,32.88
2023-01-04T16:54:10.069Z,34.40
2023-01-04T16:56:38.010Z,38.33
2023-01-04T16:59:05.571Z,34.83
2023-01-04T17:01:40.411Z,33.28
2023-01-04T17:04:13.911Z,32.00
2023-01-04T17:06:45.177Z,31.90
2023-01-04T17:09:19.997Z,37.85
2023-01-04T17:14:44.547Z,29.90
2023-01-04T17:17:11.755Z,33.53
2023-01-04T17:19:39.474Z,30.98
2023-01-04T17:22:07.221Z,34.03
2023-01-04T17:24:34.948Z,35.17
2023-01-04T17:27:02.337Z,37.85
2023-01-04T17:29:30.114Z,36.97
2023-01-04T17:31:57.585Z,31.65
2023-01-04T17:34:25.071Z,36.97
2023-01-04T17:36:52.264Z,33.80
2023-01-04T17:39:21.053Z,35.25
2023-01-04T17:41:49.443Z,29.80
2023-01-04T17:44:18.850Z,31.17
2023-01-04T17:46:46.599Z,32.38
2023-01-04T17:49:23.933Z,33.70
2023-01-04T17:51:55.963Z,29.65
2023-01-04T17:54:25.740Z,35.33
2023-01-04T17:56:52.988Z,28.52
2023-01-04T17:59:20.923Z,30.02
2023-01-04T18:01:49.036Z,26.98
2023-01-04T18:04:18.106Z,27.65
2023-01-04T18:06:45.946Z,30.92
2023-01-04T18:09:15.586Z,24.65
2023-01-04T18:11:46.441Z,26.98
2023-01-04T18:14:14.723Z,40.65
2023-01-04T18:16:58.610Z,33.25
2023-01-04T18:19:29.813Z,23.90
2023-01-04T18:21:58.029Z,26.38
2023-01-04T18:24:41.934Z,25.58
2023-01-04T18:27:24.565Z,29.23
2023-01-04T18:29:56.963Z,30.88
2023-01-04T18:32:26.775Z,23.83
2023-01-04T18:34:55.999Z,29.42
2023-01-04T18:37:23.502Z,25.00
2023-01-04T18:39:51.364Z,23.17
2023-01-04T18:42:19.107Z,25.17
2023-01-04T18:44:49.428Z,21.42
2023-01-04T18:47:22.009Z,19.40
2023-01-04T18:49:52.743Z,23.00
2023-01-04T18:52:20.370Z,18.42
2023-01-04T18:54:49.011Z,20.00
2023-01-04T18:57:17.171Z,18.08
2023-01-04T18:59:45.225Z,16.27
2023-01-04T19:02:19.141Z,16.95
2023-01-04T19:04:47.214Z,18.00
2023-01-04T19:07:15.232Z,18.15
2023-01-04T19:09:43.547Z,19.02
2023-01-04T19:12:13.005Z,17.27
2023-01-04T19:14:44.176Z,18.48
2023-01-04T19:17:14.802Z,15.80
2023-01-04T19:19:43.651Z,18.35
2023-01-04T19:22:11.458Z,13.90
2023-01-04T19:24:39.405Z,15.38
2023-01-04T19:27:07.563Z,17.15
2023-01-04T19:29:37.289Z,14.73
2023-01-04T19:32:06.135Z,14.13
2023-01-04T19:34:34.269Z,13.38
2023-01-04T19:37:02.358Z,14.63
2023-01-04T19:39:33.684Z,13.93
2023-01-04T19:42:04.472Z,15.35
2023-01-04T19:44:32.834Z,13.88
2023-01-04T19:47:02.107Z,15.73
2023-01-04T19:49:30.539Z,16.05
2023-01-04T19:51:57.945Z,17.33
2023-01-04T19:54:26.036Z,20.48
2023-01-04T19:56:54.999Z,14.68
2023-01-04T19:59:23.989Z,14.57
2023-01-04T20:01:52.448Z,14.35
2023-01-04T20:04:21.003Z,13.50
2023-01-04T20:06:49.616Z,15.60
2023-01-04T20:09:25.158Z,13.88
2023-01-04T20:11:55.153Z,8.70
2023-01-04T20:14:23.111Z,9.30
2023-01-04T20:16:51.737Z,2.72
2023-01-04T20:19:19.687Z,2.47
2023-01-04T20:21:47.640Z,1.92
2023-01-04T20:24:16.941Z,1.70
2023-01-04T20:26:46.164Z,1.95
2023-01-04T20:29:15.785Z,1.63
2023-01-04T20:31:46.962Z,2.17
2023-01-04T20:34:15.300Z,2.05
2023-01-04T20:36:44.050Z,2.45
2023-01-04T20:39:15.590Z,1.55
2023-01-04T20:42:03.011Z,1.60
2023-01-04T20:44:30.981Z,1.23
2023-01-04T20:46:58.737Z,2.63
2023-01-04T20:49:26.652Z,1.15
2023-01-04T20:51:54.696Z,1.05
2023-01-04T20:54:22.819Z,1.15
2023-01-04T20:56:50.424Z,1.98
2023-01-04T20:59:18.298Z,1.77
2023-01-04T21:01:46.551Z,2.15
2023-01-04T21:04:16.670Z,1.98
2023-01-04T21:06:48.173Z,2.33
2023-01-04T21:09:15.739Z,3.15
2023-01-04T21:11:44.708Z,1.13
2023-01-04T21:14:13.038Z,1.35
2023-01-04T21:16:44.002Z,1.23
2023-01-04T21:19:11.719Z,1.25
2023-01-04T21:21:39.939Z,1.20
2023-01-04T21:24:07.996Z,1.15
2023-01-04T21:26:35.677Z,0.95
2023-01-04T21:29:03.153Z,1.25
2023-01-04T21:31:30.396Z,1.13
2023-01-04T21:33:58.157Z,1.55
2023-01-04T21:36:27.879Z,1.17
2023-01-04T21:38:57.784Z,3.13
2023-01-04T21:41:26.344Z,1.08
2023-01-04T21:43:56.556Z,2.20
2023-01-04T21:46:25.441Z,1.00
2023-01-04T21:49:01.709Z,4.53
2023-01-04T21:51:29.958Z,1.15
2023-01-04T21:53:58.329Z,1.30
2023-01-04T21:56:25.573Z,2.38
2023-01-04T21:58:52.842Z,0.82
2023-01-04T22:01:30.925Z,4.22
2023-01-04T22:04:01.796Z,3.05
2023-01-04T22:06:29.272Z,1.08
2023-01-04T22:08:56.513Z,0.63
2023-01-04T22:11:23.715Z,4.40
2023-01-04T22:13:51.120Z,0.90
2023-01-04T22:16:18.627Z,0.73
2023-01-04T22:18:49.561Z,1.17
2023-01-04T22:21:20.172Z,0.63
2023-01-04T22:23:47.440Z,1.48
2023-01-04T22:26:18.080Z,1.20
2023-01-04T22:28:45.431Z,1.30
2023-01-04T22:31:14.571Z,1.85
2023-01-04T22:33:42.544Z,0.73
2023-01-04T22:36:21.189Z,0.75
2023-01-04T22:38:54.056Z,0.50
2023-01-04T22:41:23.438Z,0.63
2023-01-04T22:44:03.576Z,1.08
2023-01-04T22:46:33.772Z,1.10
2023-01-04T22:49:02.014Z,0.80
2023-01-04T22:51:30.921Z,1.13
2023-01-04T22:54:01.426Z,1.05
2023-01-04T22:56:29.780Z,1.40
2023-01-04T22:58:58.415Z,1.15
2023-01-04T23:01:29.813Z,1.48
2023-01-04T23:03:59.181Z,4.97
2023-01-04T23:06:28.296Z,0.90
2023-01-04T23:09:00.857Z,1.58
2023-01-04T23:11:33.371Z,1.23
2023-01-04T23:14:04.129Z,1.58
2023-01-04T23:16:33.212Z,1.17
2023-01-04T23:19:06.077Z,2.03
2023-01-04T23:21:34.882Z,10.82
2023-01-04T23:24:02.567Z,1.13
2023-01-04T23:26:31.409Z,1.15
2023-01-04T23:29:00.112Z,1.83
2023-01-04T23:31:33.161Z,1.30
2023-01-04T23:34:02.997Z,1.13
2023-01-04T23:36:37.272Z,2.92
2023-01-04T23:39:09.042Z,2.03
2023-01-04T23:41:45.529Z,2.17
2023-01-04T23:44:24.246Z,1.17
2023-01-04T23:49:34.792Z,2.45
2023-01-04T23:52:03.343Z,1.20
2023-01-04T23:54:30.926Z,1.00
2023-01-04T23:56:59.737Z,1.98
2023-01-04T23:59:27.177Z,1.67
